Time;durP1;ratioP1;P1;durP2;ratioP2;P2;SDS_P1;SDS_P2;PMS_P1;PMS_P2;Temp;Humidity;BMP_temperature;BMP_pressure;BME280_temperature;BME280_humidity;BME280_pressure;Samples;Min_cycle;Max_cycle;Signal;HPM_P1;HPM_P2
2021/10/04 00:02:11;;;;;;;0.90;0.45;;;;;;;18.97;44.63;100913.53;4987152;28;20125;-73
2021/10/04 00:04:38;;;;;;;0.77;0.60;;;;;;;18.97;44.36;100915.44;4989825;28;20050;-73
2021/10/04 00:07:05;;;;;;;2.55;0.60;;;;;;;18.95;44.55;100921.06;4989476;28;20137;-73
2021/10/04 00:09:32;;;;;;;2.00;0.50;;;;;;;18.94;44.43;100926.75;4989061;28;20402;-73
2021/10/04 00:11:59;;;;;;;1.02;0.63;;;;;;;18.95;44.39;100933.97;4969157;28;20054;-74
2021/10/04 00:14:25;;;;;;;1.15;0.60;;;;;;;18.93;44.53;100938.78;4987797;28;20182;-73
2021/10/04 00:16:53;;;;;;;1.02;0.50;;;;;;;18.93;44.51;100944.28;4989474;28;20050;-73
2021/10/04 00:19:20;;;;;;;2.13;0.50;;;;;;;18.90;44.32;100950.94;4988493;28;20050;-74
2021/10/04 00:21:47;;;;;;;1.10;0.50;;;;;;;18.91;44.74;100954.56;4987099;28;20047;-73
2021/10/04 00:24:13;;;;;;;0.73;0.57;;;;;;;18.89;44.68;100960.22;4989157;28;20085;-73
2021/10/04 00:26:40;;;;;;;1.25;0.50;;;;;;;18.89;44.34;100954.72;4989045;28;20108;-73
2021/10/04 00:29:07;;;;;;;1.55;0.70;;;;;;;18.89;44.63;100957.47;4985171;28;20050;-73
2021/10/04 00:31:34;;;;;;;0.95;0.60;;;;;;;18.88;44.68;100974.13;4989946;28;20133;-73
2021/10/04 00:34:02;;;;;;;1.13;0.70;;;;;;;18.88;44.40;100974.13;4987726;28;20141;-74
2021/10/04 00:36:28;;;;;;;1.92;0.50;;;;;;;18.86;44.15;100979.78;4972131;28;20464;-73
2021/10/04 00:38:55;;;;;;;0.93;0.60;;;;;;;18.85;44.55;100983.56;4989587;28;20070;-73
2021/10/04 00:41:22;;;;;;;0.90;0.50;;;;;;;18.85;44.64;100978.06;4988787;28;20054;-73
2021/10/04 00:43:49;;;;;;;1.17;0.68;;;;;;;18.84;44.38;100981.84;4989419;28;20074;-73
2021/10/04 00:46:15;;;;;;;0.77;0.57;;;;;;;18.83;44.46;100987.47;4986325;28;20508;-73
2021/10/04 00:48:42;;;;;;;1.35;0.68;;;;;;;18.81;44.73;100962.88;4989524;28;20050;-73
2021/10/04 00:51:09;;;;;;;1.38;0.70;;;;;;;18.80;44.50;100965.78;4988914;28;20054;-73
2021/10/04 00:53:36;;;;;;;0.98;0.55;;;;;;;18.78;44.51;100974.16;4982394;28;20133;-73
2021/10/04 00:56:03;;;;;;;1.40;0.52;;;;;;;18.77;44.58;100969.72;4986126;28;20062;-73
2021/10/04 00:58:31;;;;;;;1.38;0.60;;;;;;;18.76;44.17;100973.47;4987047;28;20046;-73
2021/10/04 01:00:58;;;;;;;0.98;0.60;;;;;;;18.75;44.40;100968.13;4984876;28;20076;-73
2021/10/04 01:03:25;;;;;;;1.02;0.70;;;;;;;18.73;44.44;100967.41;4988268;28;20066;-73
2021/10/04 01:05:51;;;;;;;1.80;0.63;;;;;;;18.72;44.38;100954.66;4987172;28;20050;-73
2021/10/04 01:08:18;;;;;;;1.60;0.68;;;;;;;18.71;44.46;100967.53;4985623;28;20042;-73
2021/10/04 01:10:45;;;;;;;2.17;0.52;;;;;;;18.70;44.41;100971.31;4983295;28;20085;-73
2021/10/04 01:13:11;;;;;;;0.70;0.65;;;;;;;18.69;44.40;100980.63;4989508;28;20090;-73
2021/10/04 01:15:38;;;;;;;2.00;0.70;;;;;;;18.68;44.72;100984.38;4986171;28;20129;-73
2021/10/04 01:18:06;;;;;;;1.27;0.80;;;;;;;18.67;44.39;100988.13;4989970;28;20520;-73
2021/10/04 01:20:34;;;;;;;2.08;0.70;;;;;;;18.62;44.56;100983.06;4987145;28;20074;-73
2021/10/04 01:23:01;;;;;;;1.42;0.70;;;;;;;18.62;44.56;100987.72;4969654;28;20121;-73
2021/10/04 01:25:27;;;;;;;1.23;0.70;;;;;;;18.59;44.42;100994.41;4988898;28;20145;-73
2021/10/04 01:27:54;;;;;;;1.88;0.77;;;;;;;18.58;44.52;101002.78;4979241;28;20117;-73
2021/10/04 01:30:25;;;;;;;1.02;0.60;;;;;;;18.57;44.55;101010.16;4987901;28;20055;-74
2021/10/04 01:32:53;;;;;;;1.90;0.90;;;;;;;18.52;44.39;101004.25;4972100;28;20133;-73
2021/10/04 01:35:20;;;;;;;2.17;0.80;;;;;;;18.50;44.57;101003.50;4989130;28;20137;-73
2021/10/04 01:37:47;;;;;;;1.48;0.70;;;;;;;18.49;45.01;100995.41;4987915;28;20088;-73
2021/10/04 01:40:15;;;;;;;1.35;0.80;;;;;;;18.49;44.93;100990.78;4988220;28;20054;-73
2021/10/04 01:42:42;;;;;;;2.17;0.80;;;;;;;18.47;44.94;100992.81;4986207;28;20046;-73
2021/10/04 01:45:12;;;;;;;1.90;0.80;;;;;;;18.47;45.08;100989.19;4984919;28;20100;-73
2021/10/04 01:47:39;;;;;;;1.83;0.90;;;;;;;18.46;45.16;101001.19;4987928;28;20109;-74
2021/10/04 01:50:09;;;;;;;1.08;0.70;;;;;;;18.47;45.23;100998.31;4969686;28;20060;-74
2021/10/04 01:52:36;;;;;;;2.80;1.02;;;;;;;18.45;44.90;100993.97;4994050;28;20527;-73
2021/10/04 01:55:04;;;;;;;1.52;0.90;;;;;;;18.46;45.00;100992.94;4986665;28;20062;-73
2021/10/04 01:57:31;;;;;;;2.13;0.80;;;;;;;18.46;44.98;100984.69;4991290;28;20133;-73
2021/10/04 02:00:01;;;;;;;0.98;0.60;;;;;;;18.46;45.30;100984.69;4974472;28;20054;-73
2021/10/04 02:02:29;;;;;;;1.85;1.00;;;;;;;18.46;45.14;100991.06;4988989;28;20137;-73
2021/10/04 02:04:56;;;;;;;1.70;0.90;;;;;;;18.45;45.16;100986.56;4973294;28;20133;-73
2021/10/04 02:07:22;;;;;;;2.67;0.95;;;;;;;18.46;45.13;100982.81;4973916;28;20050;-74
2021/10/04 02:09:49;;;;;;;1.80;0.85;;;;;;;18.46;45.31;100984.69;4990053;28;20130;-75
2021/10/04 02:12:16;;;;;;;0.98;0.70;;;;;;;18.46;45.24;100985.56;4991895;28;20050;-73
2021/10/04 02:14:43;;;;;;;1.38;0.70;;;;;;;18.46;45.20;100982.81;4990819;28;20061;-73
2021/10/04 02:17:10;;;;;;;1.67;0.80;;;;;;;18.46;44.91;100984.69;4991407;28;20081;-74
2021/10/04 02:19:36;;;;;;;1.50;0.80;;;;;;;18.46;45.03;100981.94;4991615;28;20130;-73
2021/10/04 02:22:04;;;;;;;1.15;0.70;;;;;;;18.46;45.20;100992.94;4988071;28;20062;-73
2021/10/04 02:24:30;;;;;;;1.95;0.75;;;;;;;18.46;45.09;100991.06;4990513;28;20726;-74
2021/10/04 02:26:57;;;;;;;1.23;0.70;;;;;;;18.45;45.48;100992.06;4991138;28;20149;-73
2021/10/04 02:29:23;;;;;;;3.03;0.80;;;;;;;18.45;45.37;100992.06;4988974;28;20053;-73
2021/10/04 02:31:50;;;;;;;1.27;0.70;;;;;;;18.44;45.30;100986.75;4987431;28;20538;-73
2021/10/04 02:34:18;;;;;;;0.90;0.65;;;;;;;18.43;45.24;100988.63;4989816;28;20084;-73
2021/10/04 02:36:44;;;;;;;1.50;0.70;;;;;;;18.41;45.02;100982.41;4992186;28;20597;-74
2021/10/04 02:39:11;;;;;;;2.00;0.80;;;;;;;18.41;45.32;100981.53;4991308;28;20054;-73
2021/10/04 02:41:37;;;;;;;1.60;1.00;;;;;;;18.39;45.58;100978.94;4991852;28;20136;-74
2021/10/04 02:44:04;;;;;;;2.22;0.80;;;;;;;18.38;45.06;100995.56;4996046;28;20074;-74
2021/10/04 02:46:30;;;;;;;1.35;0.70;;;;;;;18.36;45.66;100987.50;4995137;28;20073;-73
2021/10/04 02:48:57;;;;;;;0.75;0.60;;;;;;;18.35;45.33;100994.00;4985313;28;20050;-73
2021/10/04 02:51:24;;;;;;;1.80;0.75;;;;;;;18.36;45.19;100998.50;4990517;28;20096;-73
2021/10/04 02:53:51;;;;;;;1.77;0.70;;;;;;;18.34;45.21;100995.03;4990120;28;20077;-73
2021/10/04 02:56:17;;;;;;;1.75;0.63;;;;;;;18.33;45.33;100986.94;4988458;28;20054;-73
2021/10/04 02:58:44;;;;;;;1.52;0.80;;;;;;;18.32;45.19;100997.06;4985648;28;20129;-73
2021/10/04 03:01:11;;;;;;;1.85;0.73;;;;;;;18.31;45.19;100992.56;4990185;28;20078;-73
2021/10/04 03:03:38;;;;;;;2.00;0.90;;;;;;;18.31;45.38;101000.81;4985928;28;20489;-74
2021/10/04 03:06:05;;;;;;;1.23;0.63;;;;;;;18.29;45.27;101008.34;4989456;28;20120;-74
2021/10/04 03:08:32;;;;;;;1.17;0.73;;;;;;;18.29;45.73;101011.09;4989026;28;20466;-73
2021/10/04 03:10:58;;;;;;;1.25;0.70;;;;;;;18.29;45.38;101012.97;4984454;28;20100;-74
2021/10/04 03:13:25;;;;;;;2.30;0.95;;;;;;;18.28;45.54;101016.75;4991427;28;20133;-73
2021/10/04 03:15:51;;;;;;;1.60;0.80;;;;;;;18.28;45.47;101022.25;4988812;28;20112;-73
2021/10/04 03:18:18;;;;;;;1.40;0.80;;;;;;;18.28;45.29;101030.50;4974237;28;20081;-74
2021/10/04 03:20:45;;;;;;;1.55;0.65;;;;;;;18.27;45.64;101032.38;4989439;28;20133;-73
2021/10/04 03:23:11;;;;;;;1.38;0.85;;;;;;;18.26;45.80;101030.63;4986664;28;20085;-74
2021/10/04 03:25:38;;;;;;;1.65;0.80;;;;;;;18.24;45.29;101036.28;4987931;28;20104;-73
2021/10/04 03:28:05;;;;;;;1.45;0.82;;;;;;;18.25;45.43;101056.38;4990635;28;20486;-73
2021/10/04 03:30:33;;;;;;;1.27;0.80;;;;;;;18.24;45.55;101058.25;4985189;28;20145;-74
2021/10/04 03:33:01;;;;;;;1.35;0.77;;;;;;;18.25;45.58;101064.63;4974167;28;20050;-74
2021/10/04 03:35:28;;;;;;;2.67;0.90;;;;;;;18.25;45.81;101072.88;4989068;28;20497;-74
2021/10/04 03:37:55;;;;;;;1.67;0.68;;;;;;;18.24;45.79;101071.13;4989742;28;20050;-73
2021/10/04 03:40:22;;;;;;;1.13;0.77;;;;;;;18.23;45.38;101064.78;4987101;28;20100;-73
2021/10/04 03:42:49;;;;;;;1.98;0.80;;;;;;;18.23;45.76;101069.41;4973474;28;20566;-73
2021/10/04 03:45:16;;;;;;;1.20;0.80;;;;;;;18.22;45.84;101065.78;4988208;28;20630;-73
2021/10/04 03:47:44;;;;;;;1.77;0.90;;;;;;;18.23;45.86;101069.41;4989774;28;20149;-74
2021/10/04 03:50:13;;;;;;;1.85;0.80;;;;;;;18.22;45.85;101081.41;4982931;28;20050;-73
2021/10/04 03:52:40;;;;;;;2.15;0.77;;;;;;;18.20;46.00;101072.47;4974366;28;20055;-73
2021/10/04 03:55:09;;;;;;;1.23;0.70;;;;;;;18.21;45.95;101077.78;4988603;28;20112;-74
2021/10/04 03:57:38;;;;;;;1.48;0.80;;;;;;;18.20;45.75;101076.03;4993800;28;20070;-73
2021/10/04 04:00:14;;;;;;;3.13;1.15;;;;;;;18.24;45.80;101082.13;4985674;28;20476;-74
2021/10/04 04:02:41;;;;;;;2.03;0.90;;;;;;;18.20;45.79;101070.53;4963682;28;20054;-74
2021/10/04 04:05:08;;;;;;;0.85;0.73;;;;;;;18.22;45.69;101081.41;4988904;28;20062;-73
2021/10/04 04:07:35;;;;;;;1.27;0.90;;;;;;;18.21;45.82;101083.28;4988481;28;20137;-74
2021/10/04 04:10:04;;;;;;;1.45;0.73;;;;;;;18.23;45.69;101083.13;4987626;28;20125;-73
2021/10/04 04:12:31;;;;;;;2.25;1.10;;;;;;;18.21;45.97;101082.41;4987161;28;20057;-74
2021/10/04 04:14:58;;;;;;;1.88;0.90;;;;;;;18.20;45.85;101084.28;4988694;28;20081;-73
2021/10/04 04:17:24;;;;;;;1.50;1.20;;;;;;;18.20;45.77;101075.22;4987282;28;20052;-73
2021/10/04 04:19:51;;;;;;;1.48;0.90;;;;;;;18.19;46.28;101078.97;4987190;28;20125;-74
2021/10/04 04:22:17;;;;;;;1.60;0.88;;;;;;;18.18;45.73;101086.34;4989039;28;20125;-74
2021/10/04 04:24:55;;;;;;;1.88;0.95;;;;;;;18.19;45.96;101071.59;4989331;28;20105;-74
2021/10/04 04:27:26;;;;;;;1.42;0.80;;;;;;;18.18;46.02;101077.22;4975697;28;20133;-74
2021/10/04 04:29:53;;;;;;;1.90;0.88;;;;;;;18.13;45.87;101077.66;4987982;28;20137;-73
2021/10/04 04:32:19;;;;;;;1.83;1.00;;;;;;;18.12;46.08;101077.78;4987472;28;20070;-73
2021/10/04 04:34:46;;;;;;;2.17;1.00;;;;;;;18.11;45.86;101074.19;4988576;28;20132;-73
2021/10/04 04:37:13;;;;;;;1.83;0.90;;;;;;;18.11;45.89;101076.09;4988806;28;20107;-73
2021/10/04 04:39:39;;;;;;;2.75;0.90;;;;;;;18.10;45.98;101071.59;4988725;28;20057;-73
2021/10/04 04:42:07;;;;;;;1.55;0.90;;;;;;;18.09;45.94;101072.59;4986918;28;20054;-74
2021/10/04 04:44:34;;;;;;;1.67;0.90;;;;;;;18.10;45.97;101077.09;4982767;28;20058;-72
2021/10/04 04:47:01;;;;;;;1.98;0.95;;;;;;;18.09;46.38;101065.22;4989455;28;20457;-73
2021/10/04 04:49:27;;;;;;;1.63;1.25;;;;;;;18.09;46.03;101067.09;4985128;28;20513;-73
2021/10/04 04:51:56;;;;;;;1.90;0.90;;;;;;;18.10;46.07;101064.22;4996428;28;20085;-73
2021/10/04 04:54:23;;;;;;;3.30;1.20;;;;;;;18.09;46.25;101069.84;4995498;28;20537;-73
2021/10/04 04:56:49;;;;;;;2.47;1.40;;;;;;;18.09;45.98;101064.34;4999760;28;20144;-73
2021/10/04 04:59:16;;;;;;;1.90;1.08;;;;;;;18.09;46.20;101076.22;4993304;28;20141;-73
2021/10/04 05:01:43;;;;;;;2.15;0.80;;;;;;;18.09;45.76;101072.59;4972514;28;20582;-73
2021/10/04 05:04:12;;;;;;;1.70;0.85;;;;;;;18.09;46.24;101080.84;4990789;28;20053;-73
2021/10/04 05:06:39;;;;;;;2.30;1.10;;;;;;;18.08;46.40;101085.47;4995005;28;20078;-73
2021/10/04 05:09:06;;;;;;;1.67;0.93;;;;;;;18.09;46.21;101092.72;4988246;28;20050;-72
2021/10/04 05:11:33;;;;;;;3.10;1.10;;;;;;;18.08;46.46;101099.22;4989671;28;20050;-72
2021/10/04 05:14:00;;;;;;;2.55;1.00;;;;;;;18.09;45.84;101103.69;4988449;28;20109;-73
2021/10/04 05:16:27;;;;;;;1.80;1.00;;;;;;;18.08;45.88;101101.97;4988857;28;20054;-73
2021/10/04 05:18:54;;;;;;;1.40;0.90;;;;;;;18.10;45.83;101108.19;4988346;28;20055;-73
2021/10/04 05:21:21;;;;;;;1.50;1.00;;;;;;;18.09;46.03;101111.06;4993882;28;20046;-73
2021/10/04 05:23:48;;;;;;;2.10;0.90;;;;;;;18.10;45.94;101118.31;4995574;28;20141;-73
2021/10/04 05:26:15;;;;;;;1.20;0.82;;;;;;;18.10;46.29;101110.06;4988206;28;20128;-73
2021/10/04 05:28:41;;;;;;;2.40;1.00;;;;;;;18.09;46.10;101109.19;4988008;28;20101;-74
2021/10/04 05:31:08;;;;;;;1.83;1.10;;;;;;;18.10;46.24;101107.31;4989218;28;20043;-75
2021/10/04 05:33:36;;;;;;;1.70;0.88;;;;;;;18.10;46.02;101101.81;4984049;28;20047;-76
2021/10/04 05:36:05;;;;;;;1.40;0.73;;;;;;;18.11;46.49;101115.41;4987837;28;20105;-76
2021/10/04 05:38:32;;;;;;;1.70;1.00;;;;;;;18.11;46.17;101117.31;4986531;28;20050;-75
2021/10/04 05:41:00;;;;;;;2.92;0.95;;;;;;;18.10;46.20;101113.69;4990561;28;20058;-76
2021/10/04 05:43:32;;;;;;;2.08;1.00;;;;;;;18.09;46.61;101117.44;4977633;28;20042;-75
2021/10/04 05:46:00;;;;;;;1.70;0.85;;;;;;;18.10;46.15;101137.53;4991908;28;20054;-75
2021/10/04 05:48:26;;;;;;;1.67;0.93;;;;;;;18.09;45.96;101139.41;4990485;28;20105;-75
2021/10/04 05:50:53;;;;;;;2.35;1.10;;;;;;;18.10;46.00;101138.41;4987269;28;20105;-74
2021/10/04 05:53:21;;;;;;;2.10;0.98;;;;;;;18.11;46.60;101147.53;4995420;28;20038;-74
2021/10/04 05:55:48;;;;;;;2.42;1.15;;;;;;;18.11;46.56;101150.28;4990355;28;20054;-75
2021/10/04 05:58:15;;;;;;;1.65;0.85;;;;;;;18.10;46.46;101149.41;4981685;28;20085;-74
2021/10/04 06:00:43;;;;;;;1.55;0.90;;;;;;;18.13;46.40;101145.47;4984939;28;20674;-74
2021/10/04 06:03:10;;;;;;;1.77;1.00;;;;;;;18.11;46.54;101147.53;4973428;28;20050;-74
2021/10/04 06:05:37;;;;;;;2.10;0.90;;;;;;;18.11;46.67;101153.03;4989146;28;20050;-74
2021/10/04 06:08:04;;;;;;;2.45;1.00;;;;;;;18.12;46.15;101162.97;4990408;28;20050;-74
2021/10/04 06:10:31;;;;;;;2.30;1.05;;;;;;;18.11;46.43;101172.25;4991182;28;20186;-74
2021/10/04 06:12:58;;;;;;;1.58;1.00;;;;;;;18.12;46.26;101182.22;4990497;28;20089;-74
2021/10/04 06:15:24;;;;;;;1.42;0.98;;;;;;;18.11;46.40;101194.25;4991031;28;20140;-74
2021/10/04 06:17:54;;;;;;;2.83;1.13;;;;;;;18.12;46.50;101194.06;4988823;28;20113;-74
2021/10/04 06:20:24;;;;;;;3.88;1.17;;;;;;;18.11;46.53;101205.22;4991640;28;20379;-76
2021/10/04 06:22:51;;;;;;;2.97;1.20;;;;;;;18.11;46.49;101207.97;4997951;28;20098;-75
2021/10/04 06:25:18;;;;;;;2.20;1.20;;;;;;;18.10;46.59;101206.25;4988390;28;20425;-73
2021/10/04 06:27:46;;;;;;;2.42;1.10;;;;;;;18.11;46.40;101199.75;4990850;28;20047;-75
2021/10/04 06:30:14;;;;;;;2.22;0.90;;;;;;;18.09;46.46;101216.38;4990896;28;20581;-74
2021/10/04 06:32:41;;;;;;;1.92;1.10;;;;;;;18.09;46.88;101227.34;4992809;28;20121;-75
2021/10/04 06:35:09;;;;;;;1.45;0.90;;;;;;;18.09;46.31;101223.72;4989384;28;20579;-76
2021/10/04 06:37:35;;;;;;;2.45;0.90;;;;;;;18.08;46.41;101228.34;4973165;28;20630;-75
2021/10/04 06:40:03;;;;;;;1.20;0.65;;;;;;;18.09;46.74;101242.97;4991058;28;20082;-75
2021/10/04 06:42:30;;;;;;;1.95;0.88;;;;;;;18.09;46.83;101248.47;4983335;28;20564;-74
2021/10/04 06:44:57;;;;;;;1.42;0.73;;;;;;;18.10;46.85;101233.72;4996368;28;20772;-76
2021/10/04 06:47:25;;;;;;;2.50;1.10;;;;;;;18.12;46.48;101239.91;4993397;28;20050;-75
2021/10/04 06:49:52;;;;;;;1.27;0.90;;;;;;;18.11;46.65;101239.06;4963371;28;20086;-73
2021/10/04 06:52:19;;;;;;;1.50;1.05;;;;;;;18.12;46.94;101226.19;4973609;28;20100;-75
2021/10/04 06:54:45;;;;;;;1.70;0.90;;;;;;;18.13;46.58;101214.19;4974681;28;20090;-74
2021/10/04 06:57:12;;;;;;;2.13;1.00;;;;;;;18.15;46.88;101220.41;4989867;28;20145;-73
2021/10/04 06:59:38;;;;;;;1.30;0.90;;;;;;;18.15;46.39;101218.53;4987651;28;20062;-74
2021/10/04 07:02:09;;;;;;;1.20;0.82;;;;;;;18.17;46.43;101227.50;4983588;28;20058;-74
2021/10/04 07:04:36;;;;;;;1.40;0.77;;;;;;;18.19;46.48;101231.00;4989047;28;20872;-73
2021/10/04 07:07:03;;;;;;;1.70;0.93;;;;;;;18.19;46.93;101222.75;4988959;28;20104;-73
2021/10/04 07:09:31;;;;;;;3.05;1.17;;;;;;;18.20;46.55;101232.69;4971400;28;20056;-72
2021/10/04 07:11:58;;;;;;;2.22;0.85;;;;;;;18.21;47.05;101237.19;4989007;28;20618;-74
2021/10/04 07:14:25;;;;;;;1.88;0.90;;;;;;;18.21;46.89;101241.81;4988757;28;20054;-73
2021/10/04 07:16:52;;;;;;;1.83;0.70;;;;;;;18.21;47.06;101237.19;4986784;28;20121;-73
2021/10/04 07:19:18;;;;;;;1.20;0.77;;;;;;;18.23;46.54;101240.69;4988220;28;20129;-73
2021/10/04 07:21:51;;;;;;;1.13;0.70;;;;;;;18.25;46.70;101244.16;4971611;28;20102;-73
2021/10/04 07:24:19;;;;;;;1.77;0.80;;;;;;;18.26;46.61;101245.03;4990233;28;20060;-74
2021/10/04 07:26:47;;;;;;;1.80;0.80;;;;;;;18.29;46.68;101271.34;4987379;28;20096;-73
2021/10/04 07:29:14;;;;;;;1.92;0.80;;;;;;;18.33;46.54;101264.56;4982842;28;20046;-73
2021/10/04 07:31:41;;;;;;;1.75;0.80;;;;;;;18.33;46.66;101253.56;4989076;28;20054;-73
2021/10/04 07:34:09;;;;;;;2.15;0.70;;;;;;;18.37;46.77;101255.00;4989269;28;20082;-73
2021/10/04 07:36:37;;;;;;;2.00;0.70;;;;;;;18.37;46.92;101253.13;4971703;28;20074;-73
2021/10/04 07:39:05;;;;;;;2.15;0.93;;;;;;;18.41;46.81;101253.72;4988718;28;20090;-73
2021/10/04 07:41:33;;;;;;;1.13;0.70;;;;;;;18.42;46.95;101253.59;4985527;28;20554;-73
2021/10/04 07:43:59;;;;;;;1.02;0.63;;;;;;;18.45;46.87;101238.66;4989373;28;20137;-73
2021/10/04 07:46:26;;;;;;;1.83;0.80;;;;;;;18.47;46.96;101253.13;4976051;28;20077;-73
2021/10/04 07:48:53;;;;;;;1.83;0.60;;;;;;;18.50;46.44;101255.63;4972153;28;20133;-73
2021/10/04 07:51:20;;;;;;;2.55;0.77;;;;;;;18.52;46.58;101245.34;4988060;28;20082;-73
2021/10/04 07:53:48;;;;;;;0.85;0.57;;;;;;;18.54;46.94;101257.91;5004598;28;20049;-73
2021/10/04 07:56:15;;;;;;;1.13;0.70;;;;;;;18.57;46.86;101254.91;4978077;28;20050;-73
2021/10/04 07:58:42;;;;;;;2.00;0.90;;;;;;;18.59;46.89;101250.16;4989353;28;20046;-73
2021/10/04 08:01:12;;;;;;;1.52;0.70;;;;;;;18.62;46.78;101243.47;4962531;28;20541;-73
2021/10/04 08:03:39;;;;;;;1.02;0.63;;;;;;;18.66;46.33;101266.06;4989590;28;20054;-74
2021/10/04 08:06:08;;;;;;;1.25;0.65;;;;;;;18.68;46.66;101264.91;4980101;28;20117;-73
2021/10/04 08:08:35;;;;;;;1.10;0.80;;;;;;;18.72;46.75;101248.97;4971809;28;20133;-73
2021/10/04 08:11:02;;;;;;;0.85;0.68;;;;;;;18.74;47.01;101249.72;4988358;28;20054;-73
2021/10/04 08:13:29;;;;;;;1.30;0.70;;;;;;;18.76;46.77;101255.94;4989565;28;20159;-73
2021/10/04 08:15:56;;;;;;;1.25;0.75;;;;;;;18.79;46.80;101263.88;4987563;28;20082;-73
2021/10/04 08:18:27;;;;;;;3.08;0.80;;;;;;;18.81;46.55;101262.72;4989368;28;20107;-73
2021/10/04 08:20:53;;;;;;;0.85;0.50;;;;;;;18.83;46.31;101255.22;4988069;28;20559;-73
2021/10/04 08:23:20;;;;;;;1.52;0.73;;;;;;;18.85;46.62;101255.94;4989164;28;20357;-73
2021/10/04 08:25:47;;;;;;;1.50;0.50;;;;;;;18.87;46.27;101255.75;4969941;28;20062;-73
2021/10/04 08:28:13;;;;;;;1.25;0.80;;;;;;;18.89;46.58;101253.75;4988652;28;20505;-73
2021/10/04 08:30:40;;;;;;;2.65;0.80;;;;;;;18.89;46.59;101246.38;4986978;28;20540;-73
2021/10/04 08:33:07;;;;;;;1.55;0.70;;;;;;;18.91;46.64;101258.09;4989241;28;20050;-73
2021/10/04 08:35:34;;;;;;;1.38;0.90;;;;;;;18.91;46.48;101252.59;4988053;28;20142;-73
2021/10/04 08:38:00;;;;;;;0.70;0.50;;;;;;;18.94;46.21;101252.28;4988469;28;20054;-73
2021/10/04 08:40:27;;;;;;;1.20;0.70;;;;;;;18.96;46.54;101250.25;4988201;28;20104;-73
2021/10/04 08:42:53;;;;;;;3.50;0.88;;;;;;;18.98;46.06;101247.38;4988749;28;20077;-73
2021/10/04 08:45:26;;;;;;;0.70;0.50;;;;;;;19.04;45.82;101254.16;4988137;28;20081;-73
2021/10/04 08:47:58;;;;;;;1.35;0.70;;;;;;;19.02;45.97;101255.16;4988126;28;20047;-73
2021/10/04 08:50:28;;;;;;;1.33;0.65;;;;;;;19.04;46.14;101257.78;4987815;28;20113;-73
2021/10/04 08:52:55;;;;;;;1.73;0.80;;;;;;;19.06;46.39;101254.88;4988520;28;20133;-73
2021/10/04 08:55:22;;;;;;;1.67;0.65;;;;;;;19.08;45.94;101256.47;4987790;28;20057;-73
2021/10/04 08:57:48;;;;;;;1.80;0.85;;;;;;;19.09;45.95;101258.22;4971085;28;20406;-73
2021/10/04 09:00:16;;;;;;;1.33;0.73;;;;;;;19.13;46.19;101262.41;4987722;28;20444;-73
2021/10/04 09:02:43;;;;;;;3.20;0.73;;;;;;;19.14;46.42;101252.25;4988542;28;20132;-73
2021/10/04 09:05:15;;;;;;;2.40;1.05;;;;;;;19.20;46.24;101252.53;4990460;28;20086;-73
2021/10/04 09:07:53;;;;;;;1.35;0.70;;;;;;;19.23;46.00;101257.75;4991930;28;20054;-73
2021/10/04 09:10:21;;;;;;;2.47;0.73;;;;;;;19.23;46.47;101252.25;4991446;28;20058;-73
2021/10/04 09:12:52;;;;;;;1.88;0.80;;;;;;;19.30;46.27;101255.25;4992467;28;20655;-73
2021/10/04 09:15:18;;;;;;;1.45;0.80;;;;;;;19.32;46.42;101261.50;4992100;28;20270;-73
2021/10/04 09:17:45;;;;;;;2.33;0.95;;;;;;;19.37;46.13;101259.16;4991440;28;20093;-73
2021/10/04 09:20:12;;;;;;;2.67;0.70;;;;;;;19.42;46.25;101261.47;4973932;28;20066;-73
2021/10/04 09:22:38;;;;;;;1.00;0.70;;;;;;;19.46;45.85;101265.66;4992645;28;20117;-73
2021/10/04 09:25:06;;;;;;;2.03;0.85;;;;;;;19.53;45.79;101270.44;4991424;28;20681;-73
2021/10/04 09:27:39;;;;;;;2.13;1.00;;;;;;;19.59;45.44;101269.00;4991827;28;20147;-73
2021/10/04 09:30:12;;;;;;;1.92;1.02;;;;;;;19.64;45.13;101283.16;4991342;28;20120;-73
2021/10/04 09:32:41;;;;;;;2.35;1.17;;;;;;;19.69;45.96;101283.56;4991736;28;20485;-73
2021/10/04 09:35:28;;;;;;;1.63;0.90;;;;;;;19.76;45.53;101284.72;4973880;28;20295;-73
2021/10/04 09:38:16;;;;;;;1.52;0.57;;;;;;;19.81;45.13;101276.00;4991266;28;20371;-73
2021/10/04 09:40:48;;;;;;;3.40;0.85;;;;;;;19.89;45.29;101271.47;4990730;28;20058;-73
2021/10/04 09:43:27;;;;;;;3.33;1.00;;;;;;;19.96;44.65;101274.47;4992082;28;20054;-73
2021/10/04 09:46:08;;;;;;;3.10;1.10;;;;;;;20.02;44.58;101280.22;4991505;28;20282;-73
2021/10/04 09:48:35;;;;;;;1.55;0.85;;;;;;;20.07;45.03;101279.78;4992221;28;20296;-73
2021/10/04 09:51:16;;;;;;;2.05;0.90;;;;;;;20.18;44.20;101276.78;4990757;28;20074;-73
2021/10/04 09:54:09;;;;;;;2.15;0.93;;;;;;;20.24;44.52;101276.19;5006437;28;20464;-73
2021/10/04 09:56:36;;;;;;;1.70;1.15;;;;;;;20.28;45.33;101274.84;5010315;28;20049;-73
2021/10/04 09:59:05;;;;;;;1.65;0.70;;;;;;;20.41;44.93;101285.56;4992008;28;20203;-73
2021/10/04 10:01:33;;;;;;;2.13;1.05;;;;;;;20.49;44.70;101264.44;4991858;28;20050;-73
2021/10/04 10:04:19;;;;;;;1.23;0.80;;;;;;;20.62;44.24;101272.31;4990952;28;20085;-74
2021/10/04 10:06:46;;;;;;;1.55;0.77;;;;;;;20.67;44.45;101266.34;4990770;28;20090;-73
2021/10/04 10:09:16;;;;;;;1.60;0.90;;;;;;;20.76;44.47;101276.41;4990412;28;20054;-73
2021/10/04 10:11:44;;;;;;;1.73;0.80;;;;;;;20.85;44.49;101278.22;4991461;28;20489;-73
2021/10/04 10:14:10;;;;;;;2.70;1.00;;;;;;;20.92;44.53;101284.84;4990576;28;20054;-74
2021/10/04 10:16:41;;;;;;;2.10;0.93;;;;;;;20.99;44.06;101288.72;4989328;28;20493;-73
2021/10/04 10:19:15;;;;;;;4.55;0.90;;;;;;;21.06;43.55;101286.19;4990516;28;20493;-74
2021/10/04 10:21:42;;;;;;;1.17;0.80;;;;;;;21.08;43.49;101286.91;4991063;28;20637;-74
2021/10/04 10:24:11;;;;;;;2.25;1.00;;;;;;;21.14;43.57;101286.25;4990285;28;20054;-74
2021/10/04 10:26:56;;;;;;;2.95;0.90;;;;;;;21.19;43.80;101292.19;4990621;28;20057;-74
2021/10/04 10:29:26;;;;;;;2.53;1.30;;;;;;;21.25;43.80;101277.72;4990133;28;20560;-73
2021/10/04 10:31:53;;;;;;;2.15;1.02;;;;;;;21.32;43.83;101283.50;4991481;28;20046;-74
2021/10/04 10:34:32;;;;;;;2.35;1.20;;;;;;;21.42;42.51;101279.56;4990655;28;20084;-74
2021/10/04 10:37:22;;;;;;;1.83;0.93;;;;;;;21.45;42.62;101287.53;4990560;28;20444;-73
2021/10/04 10:39:55;;;;;;;1.42;0.90;;;;;;;21.49;43.35;101280.69;4988653;28;20139;-73
2021/10/04 10:42:35;;;;;;;2.60;1.00;;;;;;;21.56;42.49;101270.72;4991362;28;20096;-74
2021/10/04 10:45:09;;;;;;;2.72;0.90;;;;;;;21.58;42.78;101279.69;4970853;28;20461;-74
2021/10/04 10:47:35;;;;;;;3.67;1.00;;;;;;;21.62;42.83;101281.09;4979185;28;20544;-74
2021/10/04 10:50:08;;;;;;;1.77;1.00;;;;;;;21.69;42.13;101277.66;4987395;28;20295;-73
2021/10/04 10:52:41;;;;;;;1.98;0.98;;;;;;;21.69;42.19;101280.44;4989576;28;20038;-74
2021/10/04 10:55:38;;;;;;;1.70;0.90;;;;;;;21.69;42.37;101275.78;4989542;28;20058;-73
2021/10/04 10:58:06;;;;;;;2.05;1.08;;;;;;;21.72;42.29;101282.88;4981147;28;20053;-74
2021/10/04 11:00:38;;;;;;;1.90;1.20;;;;;;;21.78;41.90;101280.31;4997432;28;20108;-74
2021/10/04 11:03:08;;;;;;;;;;;;;;;21.50;42.80;101273.22;4989403;28;20055;-74
2021/10/04 11:05:37;;;;;;;1.92;1.10;;;;;;;21.75;42.78;101265.94;4990354;28;19928;-74
2021/10/04 11:08:23;;;;;;;1.63;0.90;;;;;;;21.82;42.23;101265.16;4987722;28;20050;-74
2021/10/04 11:10:53;;;;;;;1.38;0.80;;;;;;;21.80;42.60;101272.72;4995557;28;21485;-75
2021/10/04 11:13:38;;;;;;;1.95;0.90;;;;;;;21.85;42.93;101272.22;4985966;28;20132;-75
2021/10/04 11:16:04;;;;;;;2.00;0.82;;;;;;;21.87;42.58;101272.94;4986011;28;20104;-76
2021/10/04 11:18:37;;;;;;;3.33;1.10;;;;;;;21.95;41.72;101275.75;4990484;28;20042;-77
2021/10/04 11:21:06;;;;;;;2.13;1.00;;;;;;;21.97;43.05;101279.25;4986268;28;20457;-76
2021/10/04 11:23:33;;;;;;;1.50;0.90;;;;;;;22.05;42.65;101281.19;4972900;28;20082;-76
2021/10/04 11:25:59;;;;;;;2.03;0.90;;;;;;;22.13;42.94;101267.38;4988504;28;20076;-77
2021/10/04 11:28:32;;;;;;;1.92;1.02;;;;;;;22.23;41.30;101260.69;4989792;28;20093;-76
2021/10/04 11:31:01;;;;;;;1.13;0.60;;;;;;;22.27;42.31;101262.06;4987118;28;20261;-76